Time;durP1;ratioP1;P1;durP2;ratioP2;P2;SDS_P1;SDS_P2;PMS_P1;PMS_P2;Temp;Humidity;BMP_temperature;BMP_pressure;BME280_temperature;BME280_humidity;BME280_pressure;Samples;Min_cycle;Max_cycle;Signal;HPM_P1;HPM_P2
2022/10/16 00:01:56;;;;;;;6.88;1.52;;;19.50;77.70;;;;;;7367937;19;20028;-75
2022/10/16 00:04:24;;;;;;;1.58;1.48;;;19.60;77.90;;;;;;7366410;19;20018;-75
2022/10/16 00:06:53;;;;;;;3.92;1.45;;;19.60;77.90;;;;;;7365523;19;20466;-75
2022/10/16 00:09:22;;;;;;;3.65;1.30;;;19.60;77.90;;;;;;7389934;19;20028;-75
2022/10/16 00:11:50;;;;;;;3.28;1.30;;;19.60;77.90;;;;;;7368525;19;20085;-75
2022/10/16 00:14:21;;;;;;;4.50;1.30;;;19.60;78.00;;;;;;7367732;19;20013;-75
2022/10/16 00:16:53;;;;;;;6.65;1.60;;;19.60;77.90;;;;;;7366349;19;20018;-75
2022/10/16 00:19:24;;;;;;;2.33;1.75;;;19.50;77.70;;;;;;7367720;19;20031;-74
2022/10/16 00:21:53;;;;;;;3.08;1.60;;;19.60;77.90;;;;;;7367164;19;20607;-74
2022/10/16 00:24:22;;;;;;;3.38;1.73;;;19.60;78.00;;;;;;7387483;19;20781;-74
2022/10/16 00:26:53;;;;;;;6.07;1.70;;;19.60;78.00;;;;;;7367315;19;20017;-75
2022/10/16 00:29:22;;;;;;;8.90;1.60;;;19.50;78.00;;;;;;7367077;19;20010;-74
2022/10/16 00:31:53;;;;;;;8.38;1.40;;;19.60;78.00;;;;;;7368211;19;20464;-74
2022/10/16 00:34:33;;;;;;;8.65;1.73;;;19.60;78.00;;;;;;7367603;19;20015;-75
2022/10/16 00:37:01;;;;;;;5.15;1.40;;;19.60;77.90;;;;;;7366041;19;20029;-74
2022/10/16 00:39:30;;;;;;;2.20;1.30;;;19.60;77.70;;;;;;7364311;19;20010;-75
2022/10/16 00:41:59;;;;;;;4.97;1.60;;;19.60;77.70;;;;;;7387303;19;20086;-74
2022/10/16 00:44:52;;;;;;;3.63;1.48;;;19.60;77.70;;;;;;7366628;19;20013;-75
2022/10/16 00:47:31;;;;;;;2.67;1.70;;;19.60;78.00;;;;;;7368180;19;20011;-75
2022/10/16 00:50:05;;;;;;;3.88;1.40;;;19.60;77.60;;;;;;7366699;19;20082;-75
2022/10/16 00:52:34;;;;;;;2.42;1.40;;;19.60;78.30;;;;;;7367727;19;20081;-75
2022/10/16 00:55:04;;;;;;;2.00;1.25;;;19.60;77.60;;;;;;7364033;19;20031;-75
2022/10/16 00:57:33;;;;;;;5.68;1.50;;;19.60;77.60;;;;;;7366754;19;20078;-75
2022/10/16 01:00:04;;;;;;;4.40;1.27;;;19.60;77.50;;;;;;7386801;19;20105;-74
2022/10/16 01:02:35;;;;;;;5.85;1.30;;;19.60;77.90;;;;;;7367558;19;20460;-76
2022/10/16 01:05:04;;;;;;;;;;;19.60;78.30;;;;;;7365789;19;20014;-74
2022/10/16 01:07:43;;;;;;;6.20;1.92;;;19.70;77.50;;;;;;7367130;19;19923;-74
2022/10/16 01:10:23;;;;;;;3.83;2.47;;;19.60;77.10;;;;;;7368724;19;20168;-76
2022/10/16 01:12:59;;;;;;;5.47;2.13;;;19.40;77.00;;;;;;7364467;19;20105;-74
2022/10/16 01:15:35;;;;;;;1.60;1.40;;;19.50;77.20;;;;;;7383472;19;20139;-76
2022/10/16 01:18:11;;;;;;;5.57;1.38;;;19.50;77.30;;;;;;7386780;19;20018;-75
2022/10/16 01:20:47;;;;;;;4.60;1.50;;;19.40;77.40;;;;;;7366066;19;20029;-75
2022/10/16 01:23:30;;;;;;;5.30;1.70;;;19.50;77.40;;;;;;7367114;19;20014;-74
2022/10/16 01:26:14;;;;;;;9.73;5.35;;;19.50;77.10;;;;;;7366483;19;20022;-75
2022/10/16 01:28:52;;;;;;;5.47;2.33;;;19.40;77.00;;;;;;7365854;19;20078;-75
2022/10/16 01:31:25;;;;;;;5.30;1.85;;;19.50;77.10;;;;;;7365405;19;20015;-74
2022/10/16 01:33:59;;;;;;;3.63;2.63;;;19.50;77.20;;;;;;7366331;19;20014;-75
2022/10/16 01:36:34;;;;;;;7.47;1.70;;;19.50;77.20;;;;;;7376317;19;20031;-75
2022/10/16 01:39:05;;;;;;;2.60;1.35;;;19.40;76.70;;;;;;7386867;19;20093;-75
2022/10/16 01:41:38;;;;;;;2.00;1.50;;;19.40;76.90;;;;;;7367101;19;20014;-75
2022/10/16 01:44:14;;;;;;;3.40;1.50;;;19.40;77.10;;;;;;7366200;19;20019;-75
2022/10/16 01:46:48;;;;;;;3.00;1.70;;;19.40;77.30;;;;;;7365016;19;20049;-75
2022/10/16 01:49:18;;;;;;;6.55;2.13;;;19.50;77.40;;;;;;7367755;19;20011;-75
2022/10/16 01:51:51;;;;;;;4.70;2.00;;;19.50;77.40;;;;;;7364988;19;20008;-75
2022/10/16 01:54:22;;;;;;;4.80;2.25;;;19.50;78.20;;;;;;7388285;19;20017;-74
2022/10/16 01:56:52;;;;;;;;;;;19.50;77.50;;;;;;7366099;19;20371;-75
2022/10/16 01:59:27;;;;;;;6.55;2.50;;;19.60;77.50;;;;;;7366292;19;19939;-75
2022/10/16 02:02:01;;;;;;;4.20;1.85;;;19.50;78.00;;;;;;7366797;19;20039;-75
2022/10/16 02:04:34;;;;;;;3.75;1.50;;;19.50;77.20;;;;;;7365922;19;20536;-75
2022/10/16 02:07:03;;;;;;;2.53;1.70;;;19.50;77.10;;;;;;7365241;19;20098;-75
2022/10/16 02:09:32;;;;;;;6.15;1.77;;;19.50;77.00;;;;;;7364562;19;20589;-75
2022/10/16 02:12:04;;;;;;;6.30;2.70;;;19.50;76.50;;;;;;7386368;19;20048;-75
2022/10/16 02:14:35;;;;;;;10.82;6.07;;;19.50;76.50;;;;;;7363977;19;20038;-75
2022/10/16 02:17:04;;;;;;;11.05;5.22;;;19.40;76.10;;;;;;7364910;19;20513;-75
2022/10/16 02:19:33;;;;;;;4.32;2.50;;;19.40;76.20;;;;;;7364701;19;20521;-74
2022/10/16 02:22:08;;;;;;;7.03;1.63;;;19.40;76.30;;;;;;7363351;19;20020;-74
2022/10/16 02:24:41;;;;;;;2.08;1.38;;;19.40;76.30;;;;;;7364678;19;20063;-75
2022/10/16 02:27:16;;;;;;;1.60;1.00;;;19.40;77.10;;;;;;7386896;19;20025;-75
2022/10/16 02:29:58;;;;;;;6.53;1.80;;;19.40;76.00;;;;;;7362027;19;20015;-75
2022/10/16 02:32:33;;;;;;;10.02;1.73;;;19.40;76.20;;;;;;7364894;19;20373;-75
2022/10/16 02:35:03;;;;;;;3.40;1.40;;;19.40;76.50;;;;;;7364061;19;20010;-74
2022/10/16 02:37:32;;;;;;;8.93;1.52;;;19.40;76.60;;;;;;7364634;19;20081;-74
2022/10/16 02:40:02;;;;;;;2.00;1.17;;;19.40;76.70;;;;;;7365246;19;20018;-74
2022/10/16 02:42:32;;;;;;;7.40;1.30;;;19.40;76.10;;;;;;7364376;19;20017;-75
2022/10/16 02:45:03;;;;;;;3.67;0.80;;;19.40;76.00;;;;;;7383270;19;20030;-75
2022/10/16 02:47:32;;;;;;;;;;;19.40;76.00;;;;;;7363631;19;20629;-75
2022/10/16 02:50:01;;;;;;;5.90;1.00;;;19.50;75.30;;;;;;7362634;19;19915;-75
2022/10/16 02:52:30;;;;;;;6.18;0.90;;;19.40;74.20;;;;;;7364311;19;20018;-75
2022/10/16 02:54:59;;;;;;;5.93;1.13;;;19.30;74.60;;;;;;7364712;19;20043;-75
2022/10/16 02:57:27;;;;;;;3.63;0.98;;;19.30;74.90;;;;;;7382578;19;20014;-75
2022/10/16 02:59:56;;;;;;;5.18;0.63;;;19.30;74.30;;;;;;7383215;19;20081;-74
2022/10/16 03:02:27;;;;;;;6.18;0.60;;;19.20;74.20;;;;;;7363610;19;20405;-74
2022/10/16 03:04:56;;;;;;;;;;;19.20;74.30;;;;;;7362769;19;20761;-75
2022/10/16 03:07:25;;;;;;;1.95;0.70;;;19.30;74.10;;;;;;7362950;19;20281;-75
2022/10/16 03:09:54;;;;;;;3.08;0.60;;;19.20;74.10;;;;;;7361420;19;20483;-75
2022/10/16 03:12:23;;;;;;;1.92;0.60;;;19.20;74.30;;;;;;7385853;19;20038;-75
2022/10/16 03:14:52;;;;;;;7.18;1.60;;;19.20;74.70;;;;;;7362718;19;20122;-75
2022/10/16 03:17:20;;;;;;;3.28;1.52;;;19.20;74.60;;;;;;7362131;19;20013;-75
2022/10/16 03:19:52;;;;;;;2.47;1.88;;;19.20;74.60;;;;;;7363542;19;20015;-75
2022/10/16 03:22:21;;;;;;;3.13;1.70;;;19.20;74.90;;;;;;7361544;19;20010;-74
2022/10/16 03:24:51;;;;;;;2.67;1.20;;;19.20;74.90;;;;;;7361354;19;20478;-75
2022/10/16 03:27:20;;;;;;;2.95;1.10;;;19.20;74.70;;;;;;7383126;19;20451;-75
2022/10/16 03:29:49;;;;;;;2.97;0.70;;;19.30;74.80;;;;;;7366945;19;20018;-74
2022/10/16 03:32:18;;;;;;;3.20;0.75;;;19.30;74.90;;;;;;7369064;19;20010;-75
2022/10/16 03:34:46;;;;;;;4.25;0.80;;;19.30;75.70;;;;;;7370426;19;20010;-75
2022/10/16 03:37:18;;;;;;;1.42;0.75;;;19.30;74.80;;;;;;7369940;19;20081;-75
2022/10/16 03:39:47;;;;;;;1.63;0.77;;;19.30;74.90;;;;;;7370624;19;20509;-75
2022/10/16 03:42:15;;;;;;;2.70;0.90;;;19.30;74.90;;;;;;7391140;19;20014;-75
2022/10/16 03:44:44;;;;;;;2.88;0.82;;;19.30;75.10;;;;;;7366695;19;20086;-75
2022/10/16 03:47:13;;;;;;;4.43;0.90;;;19.30;75.20;;;;;;7368452;19;20014;-75
2022/10/16 03:49:42;;;;;;;1.40;0.70;;;19.30;75.10;;;;;;7370749;19;20015;-75
2022/10/16 03:52:10;;;;;;;1.70;0.60;;;19.30;74.90;;;;;;7370698;19;20011;-75
2022/10/16 03:54:42;;;;;;;6.15;0.80;;;19.30;75.10;;;;;;7368555;19;20010;-75
2022/10/16 03:57:10;;;;;;;2.72;0.60;;;19.30;75.20;;;;;;7388571;19;20021;-75
2022/10/16 03:59:39;;;;;;;1.75;0.75;;;19.30;75.30;;;;;;7368015;19;20015;-75
2022/10/16 04:02:09;;;;;;;3.55;0.80;;;19.30;75.30;;;;;;7368228;19;20007;-75
2022/10/16 04:04:37;;;;;;;4.63;1.17;;;19.30;76.00;;;;;;7365428;19;20494;-75
2022/10/16 04:07:06;;;;;;;10.63;1.40;;;19.30;75.30;;;;;;7368948;19;20082;-75
2022/10/16 04:09:35;;;;;;;11.77;1.45;;;19.30;75.30;;;;;;7369236;19;20338;-75
2022/10/16 04:12:06;;;;;;;13.68;1.45;;;19.30;75.50;;;;;;7390111;19;20437;-75
2022/10/16 04:14:35;;;;;;;10.07;1.35;;;19.20;75.60;;;;;;7366422;19;20040;-75
2022/10/16 04:17:03;;;;;;;5.00;1.00;;;19.30;75.80;;;;;;7366488;19;20018;-75
2022/10/16 04:19:32;;;;;;;9.68;1.30;;;19.20;76.10;;;;;;7366590;19;20442;-74
2022/10/16 04:22:01;;;;;;;3.35;0.82;;;19.20;76.30;;;;;;7364211;19;20037;-75
2022/10/16 04:24:33;;;;;;;6.03;0.95;;;19.20;76.20;;;;;;7365729;19;20078;-75
2022/10/16 04:27:02;;;;;;;11.30;0.88;;;19.20;76.30;;;;;;7389586;19;20010;-75
2022/10/16 04:29:33;;;;;;;8.40;0.95;;;19.20;76.30;;;;;;7365984;19;20095;-75
2022/10/16 04:32:02;;;;;;;6.50;0.93;;;19.20;76.50;;;;;;7365962;19;20010;-75
2022/10/16 04:34:31;;;;;;;4.30;1.08;;;19.20;76.50;;;;;;7368122;19;20014;-75
2022/10/16 04:37:00;;;;;;;3.90;1.00;;;19.20;76.50;;;;;;7365878;19;20104;-74
2022/10/16 04:39:29;;;;;;;8.15;1.15;;;19.20;76.40;;;;;;7372927;19;20015;-74
2022/10/16 04:41:57;;;;;;;1.33;0.73;;;19.20;76.60;;;;;;7385751;19;20007;-75
2022/10/16 04:44:26;;;;;;;2.85;0.80;;;19.20;76.70;;;;;;7366907;19;20474;-74
2022/10/16 04:46:57;;;;;;;5.60;0.80;;;19.20;76.80;;;;;;7367961;19;20006;-75
2022/10/16 04:49:26;;;;;;;7.20;0.70;;;19.20;76.60;;;;;;7367142;19;20010;-74
2022/10/16 04:51:55;;;;;;;4.53;1.00;;;19.20;76.60;;;;;;7365941;19;20020;-75
2022/10/16 04:54:23;;;;;;;9.77;1.10;;;19.20;76.60;;;;;;7388640;19;20019;-74
2022/10/16 04:56:52;;;;;;;4.80;1.10;;;19.10;76.60;;;;;;7366592;19;20015;-74
2022/10/16 04:59:22;;;;;;;7.55;1.08;;;19.20;76.70;;;;;;7365260;19;20086;-74
2022/10/16 05:01:50;;;;;;;9.90;1.02;;;19.10;76.60;;;;;;7367046;19;20014;-75
2022/10/16 05:04:22;;;;;;;6.28;1.00;;;19.10;76.80;;;;;;7368064;19;20136;-74
2022/10/16 05:06:51;;;;;;;6.45;0.88;;;19.10;76.80;;;;;;7368440;19;20042;-74
2022/10/16 05:09:20;;;;;;;14.32;1.08;;;19.10;76.80;;;;;;7386128;19;20114;-75
2022/10/16 05:11:49;;;;;;;7.20;0.95;;;19.10;77.00;;;;;;7367409;19;20469;-75
2022/10/16 05:14:21;;;;;;;6.57;0.90;;;19.10;77.20;;;;;;7365579;19;20736;-75
2022/10/16 05:16:50;;;;;;;5.45;0.80;;;19.10;77.20;;;;;;7365555;19;20412;-74
2022/10/16 05:19:21;;;;;;;3.47;1.00;;;19.10;77.40;;;;;;7366152;19;20035;-75
2022/10/16 05:21:50;;;;;;;;;;;19.10;77.60;;;;;;7368190;19;20026;-76
2022/10/16 05:24:19;;;;;;;4.30;0.90;;;19.20;77.60;;;;;;7388286;19;20237;-75
2022/10/16 05:26:47;;;;;;;3.50;0.90;;;19.10;77.20;;;;;;7364991;19;20298;-74
2022/10/16 05:29:16;;;;;;;9.23;0.90;;;19.10;77.40;;;;;;7365411;19;20011;-74
2022/10/16 05:31:45;;;;;;;8.30;0.88;;;19.10;77.30;;;;;;7365719;19;20011;-76
2022/10/16 05:34:14;;;;;;;12.32;1.38;;;19.10;77.30;;;;;;7365213;19;20029;-75
2022/10/16 05:36:45;;;;;;;3.88;1.05;;;19.10;77.40;;;;;;7363752;19;20034;-76
2022/10/16 05:39:14;;;;;;;4.53;1.40;;;19.10;77.40;;;;;;7388406;19;20654;-75
2022/10/16 05:41:43;;;;;;;7.35;1.20;;;19.10;77.30;;;;;;7365385;19;20081;-76
2022/10/16 05:44:12;;;;;;;3.83;1.00;;;19.10;77.50;;;;;;7365524;19;20027;-75
2022/10/16 05:46:40;;;;;;;7.38;1.20;;;19.10;77.60;;;;;;7364829;19;20082;-75
2022/10/16 05:49:09;;;;;;;9.55;1.10;;;19.10;77.70;;;;;;7365197;19;20082;-76
2022/10/16 05:51:38;;;;;;;9.70;1.00;;;19.10;77.60;;;;;;7365475;19;20017;-76
2022/10/16 05:54:09;;;;;;;9.85;1.30;;;19.10;77.60;;;;;;7384418;19;20029;-76
2022/10/16 05:56:37;;;;;;;;;;;19.10;77.70;;;;;;7365081;19;20033;-76
2022/10/16 05:59:06;;;;;;;9.93;1.30;;;19.10;77.50;;;;;;7366054;19;19926;-76
2022/10/16 06:01:35;;;;;;;7.45;1.10;;;19.00;77.40;;;;;;7364805;19;20014;-76
2022/10/16 06:04:04;;;;;;;2.97;0.77;;;19.00;77.60;;;;;;7365876;19;20778;-76
2022/10/16 06:06:33;;;;;;;5.07;1.38;;;18.90;77.70;;;;;;7363671;19;20019;-76
2022/10/16 06:09:02;;;;;;;4.25;1.20;;;18.90;77.70;;;;;;7386060;19;20023;-75
2022/10/16 06:11:37;;;;;;;5.93;1.33;;;18.90;77.80;;;;;;7363684;19;20018;-75
2022/10/16 06:14:06;;;;;;;11.23;4.93;;;18.90;77.80;;;;;;7364313;19;20014;-75
2022/10/16 06:16:36;;;;;;;22.30;7.75;;;18.90;77.80;;;;;;7365530;19;20447;-74
2022/10/16 06:19:08;;;;;;;9.10;3.63;;;18.90;77.70;;;;;;7364333;19;20010;-75
2022/10/16 06:21:36;;;;;;;7.43;2.40;;;18.90;77.50;;;;;;7357869;19;20449;-75
2022/10/16 06:24:05;;;;;;;10.57;2.20;;;18.80;77.50;;;;;;7382416;19;20026;-75
2022/10/16 06:26:37;;;;;;;3.88;1.27;;;18.80;77.50;;;;;;7356003;19;20011;-76
2022/10/16 06:29:06;;;;;;;14.05;2.40;;;18.80;77.50;;;;;;7360228;19;20015;-76
2022/10/16 06:31:35;;;;;;;5.20;1.10;;;18.80;77.20;;;;;;7359290;19;20015;-76
2022/10/16 06:34:05;;;;;;;12.55;1.13;;;18.70;77.20;;;;;;7359698;19;20015;-76
2022/10/16 06:36:34;;;;;;;11.57;1.25;;;18.70;77.30;;;;;;7363276;19;20062;-75
2022/10/16 06:39:03;;;;;;;7.40;1.23;;;18.70;77.30;;;;;;7384596;19;20354;-75
2022/10/16 06:41:31;;;;;;;10.45;1.20;;;18.70;77.40;;;;;;7362536;19;20049;-75
2022/10/16 06:44:03;;;;;;;4.32;0.75;;;18.70;77.50;;;;;;7362450;19;20021;-75
2022/10/16 06:46:31;;;;;;;;;;;18.60;77.40;;;;;;7363491;19;20021;-74
2022/10/16 06:49:00;;;;;;;6.55;1.55;;;18.70;77.30;;;;;;7361706;19;19986;-76
2022/10/16 06:51:31;;;;;;;5.68;1.27;;;18.60;77.00;;;;;;7366380;19;20014;-76
2022/10/16 06:54:02;;;;;;;4.37;0.80;;;18.60;77.10;;;;;;7384189;19;20010;-76
2022/10/16 06:56:32;;;;;;;7.10;1.48;;;18.60;77.20;;;;;;7362663;19;20767;-75
2022/10/16 06:59:06;;;;;;;3.03;0.88;;;18.60;77.20;;;;;;7362019;19;20006;-74
2022/10/16 07:01:35;;;;;;;5.07;1.10;;;18.60;77.20;;;;;;7361552;19;20011;-74
2022/10/16 07:04:08;;;;;;;6.50;1.13;;;18.60;77.20;;;;;;7361302;19;20090;-75
2022/10/16 07:06:37;;;;;;;3.90;1.10;;;18.60;77.20;;;;;;7366635;19;20017;-74
2022/10/16 07:09:08;;;;;;;2.70;1.42;;;18.70;77.40;;;;;;7389007;19;20014;-77
2022/10/16 07:11:38;;;;;;;4.97;1.25;;;18.70;77.50;;;;;;7368435;19;20007;-77
2022/10/16 07:14:17;;;;;;;3.83;1.40;;;18.70;77.30;;;;;;7367809;19;20006;-75
2022/10/16 07:16:46;;;;;;;5.60;1.25;;;18.80;77.40;;;;;;7368588;19;20058;-75
2022/10/16 07:19:17;;;;;;;3.55;1.20;;;18.80;77.20;;;;;;7368717;19;20656;-75
2022/10/16 07:21:46;;;;;;;15.18;1.50;;;18.90;77.20;;;;;;7367003;19;20042;-75
2022/10/16 07:24:17;;;;;;;10.57;1.35;;;18.90;77.20;;;;;;7389111;19;20022;-75
2022/10/16 07:26:48;;;;;;;15.63;2.17;;;18.90;77.20;;;;;;7365083;19;20502;-75
2022/10/16 07:29:22;;;;;;;9.88;1.83;;;18.90;77.20;;;;;;7370763;19;20086;-76
2022/10/16 07:31:51;;;;;;;9.57;2.50;;;19.00;77.30;;;;;;7365907;19;20602;-77
2022/10/16 07:34:22;;;;;;;11.40;1.85;;;19.10;77.40;;;;;;7367466;19;20074;-76
2022/10/16 07:36:51;;;;;;;3.97;2.33;;;19.10;77.40;;;;;;7369007;19;20014;-76
2022/10/16 07:39:20;;;;;;;6.93;2.65;;;19.20;77.50;;;;;;7391235;19;20022;-76
2022/10/16 07:41:49;;;;;;;4.15;2.50;;;19.20;77.50;;;;;;7370227;19;20401;-76
2022/10/16 07:44:21;;;;;;;5.68;2.20;;;19.30;77.60;;;;;;7367532;19;20014;-75
2022/10/16 07:46:50;;;;;;;6.63;2.13;;;19.30;77.70;;;;;;7367539;19;20054;-76
2022/10/16 07:49:18;;;;;;;4.65;2.08;;;19.40;77.80;;;;;;7369804;19;20022;-76
2022/10/16 07:51:47;;;;;;;8.40;2.67;;;19.50;77.70;;;;;;7368563;19;20025;-75
2022/10/16 07:54:16;;;;;;;6.32;2.33;;;19.50;77.50;;;;;;7388967;19;20473;-75
2022/10/16 07:56:44;;;;;;;8.88;2.35;;;19.60;77.50;;;;;;7366534;19;20575;-75
2022/10/16 07:59:13;;;;;;;5.78;2.10;;;19.60;77.50;;;;;;7366309;19;20479;-74
2022/10/16 08:01:44;;;;;;;5.00;2.50;;;19.70;77.50;;;;;;7355572;19;20022;-76
2022/10/16 08:04:13;;;;;;;;;;;19.70;77.40;;;;;;7364971;19;20070;-74
2022/10/16 08:06:43;;;;;;;3.17;2.05;;;19.90;77.50;;;;;;7361328;19;20003;-76
2022/10/16 08:09:12;;;;;;;4.07;1.67;;;19.90;77.20;;;;;;7384331;19;20390;-76
2022/10/16 08:11:40;;;;;;;5.95;1.80;;;19.90;77.00;;;;;;7362641;19;20011;-77
2022/10/16 08:14:09;;;;;;;4.57;2.10;;;19.90;76.90;;;;;;7365914;19;20011;-77
2022/10/16 08:16:38;;;;;;;3.00;1.50;;;19.90;76.80;;;;;;7365762;19;20118;-76
2022/10/16 08:19:09;;;;;;;5.78;2.45;;;20.00;76.60;;;;;;7362653;19;20138;-77
2022/10/16 08:22:04;;;;;;;1.92;1.17;;;20.00;76.30;;;;;;7356454;19;20037;-77
2022/10/16 08:25:08;;;;;;;4.60;1.40;;;20.10;76.40;;;;;;7353345;19;20026;-77
2022/10/16 08:31:46;;;;;;;7.95;1.17;;;20.20;75.10;;;;;;7370889;19;20022;-77
2022/10/16 08:34:48;;;;;;;1.08;0.75;;;20.10;73.60;;;;;;7334577;19;20079;-77
2022/10/16 08:41:02;;;;;;;2.85;1.30;;;20.20;74.30;;;;;;7350104;19;20124;-76
2022/10/16 08:43:52;;;;;;;2.35;0.85;;;20.20;74.40;;;;;;7369260;19;20022;-79
2022/10/16 08:47:03;;;;;;;4.63;1.35;;;20.20;74.40;;;;;;7367186;19;20014;-77
2022/10/16 08:53:26;;;;;;;4.13;2.03;;;20.30;74.70;;;;;;7371597;19;20010;-77
2022/10/16 09:02:39;;;;;;;5.75;2.40;;;20.30;75.60;;;;;;7370540;19;20023;-79
2022/10/16 09:05:20;;;;;;;;;;;20.30;75.80;;;;;;7374764;19;20359;-81
2022/10/16 09:08:02;;;;;;;1.83;1.40;;;20.40;75.80;;;;;;7370999;19;19910;-80
2022/10/16 09:10:42;;;;;;;4.97;1.70;;;20.50;74.50;;;;;;7370128;19;20627;-80
2022/10/16 09:13:25;;;;;;;2.42;1.40;;;20.40;73.60;;;;;;7368957;19;20097;-79
2022/10/16 09:16:06;;;;;;;2.88;1.23;;;20.40;72.80;;;;;;7366167;19;20010;-80
2022/10/16 09:18:48;;;;;;;3.63;2.50;;;20.40;72.50;;;;;;7368282;19;20026;-80
2022/10/16 09:21:23;;;;;;;;;;;20.40;72.60;;;;;;7389284;19;20018;-81
2022/10/16 09:23:55;;;;;;;4.53;2.30;;;20.50;72.80;;;;;;7365779;19;19921;-80
2022/10/16 09:26:29;;;;;;;5.13;2.42;;;20.40;72.80;;;;;;7368891;19;20031;-82
2022/10/16 09:29:05;;;;;;;3.83;1.80;;;20.40;73.00;;;;;;7365823;19;20010;-81
2022/10/16 09:31:42;;;;;;;2.38;1.70;;;20.40;73.20;;;;;;7361306;19;20036;-81
2022/10/16 09:34:29;;;;;;;2.47;1.75;;;20.50;73.00;;;;;;7371688;19;20034;-79
2022/10/16 09:37:09;;;;;;;2.85;1.88;;;20.50;73.00;;;;;;7368080;19;20036;-79
2022/10/16 09:39:51;;;;;;;2.85;1.50;;;20.60;73.10;;;;;;7365321;19;20428;-80
2022/10/16 09:42:31;;;;;;;5.95;1.77;;;20.60;73.20;;;;;;7392122;19;20015;-79
2022/10/16 09:45:02;;;;;;;3.17;1.50;;;20.70;73.20;;;;;;7372002;19;20010;-80
2022/10/16 09:47:33;;;;;;;4.13;1.70;;;20.80;72.90;;;;;;7364226;19;20030;-79
2022/10/16 09:50:23;;;;;;;1.80;1.35;;;20.90;72.80;;;;;;7366475;19;20428;-78
2022/10/16 09:53:09;;;;;;;2.20;1.25;;;20.90;72.60;;;;;;7368272;19;20470;-78
2022/10/16 09:55:53;;;;;;;3.15;1.63;;;20.90;72.10;;;;;;7363746;19;20018;-78
2022/10/16 09:58:34;;;;;;;3.25;1.70;;;21.00;72.20;;;;;;7355938;19;20015;-82
2022/10/16 10:01:06;;;;;;;1.85;1.45;;;21.00;72.10;;;;;;7365311;19;20022;-83
2022/10/16 10:03:44;;;;;;;2.58;1.30;;;21.00;72.10;;;;;;7367414;19;20036;-83
2022/10/16 10:06:30;;;;;;;5.10;1.50;;;21.00;72.40;;;;;;7387040;19;20010;-82
2022/10/16 10:09:09;;;;;;;9.95;1.40;;;21.00;72.10;;;;;;7368928;19;20291;-83
2022/10/16 10:11:51;;;;;;;5.05;1.10;;;21.00;71.60;;;;;;7368554;19;20120;-85
2022/10/16 10:14:28;;;;;;;2.67;1.10;;;21.00;71.60;;;;;;7364924;19;20031;-84
2022/10/16 10:17:21;;;;;;;4.65;1.40;;;21.10;71.60;;;;;;7367814;19;20014;-79
2022/10/16 10:20:30;;;;;;;1.42;1.10;;;21.10;71.60;;;;;;7367705;19;20120;-82
2022/10/16 10:23:35;;;;;;;3.50;1.00;;;21.20;71.60;;;;;;7376551;19;20014;-81
2022/10/16 10:26:24;;;;;;;2.97;1.23;;;21.20;69.50;;;;;;7363995;19;20478;-84
2022/10/16 10:29:26;;;;;;;1.55;1.38;;;21.20;69.30;;;;;;7362197;19;20018;-81
2022/10/16 10:35:48;;;;;;;2.72;1.50;;;21.30;69.40;;;;;;7369725;19;20013;-81
2022/10/16 10:39:15;;;;;;;1.65;1.17;;;21.30;69.50;;;;;;7366412;19;20014;-80
2022/10/16 10:42:37;;;;;;;1.95;1.45;;;21.40;69.80;;;;;;7330704;19;20014;-79
2022/10/16 10:45:51;;;;;;;2.72;1.10;;;21.40;69.70;;;;;;7380722;19;20007;-80
2022/10/16 10:49:10;;;;;;;2.70;1.30;;;21.40;70.00;;;;;;7358320;19;20010;-80
2022/10/16 11:10:04;;;;;;;4.30;0.98;;;21.30;70.60;;;;;;7376243;19;20517;-80
2022/10/16 11:30:14;;;;;;;1.52;1.10;;;21.50;70.60;;;;;;7406828;19;20007;-82
2022/10/16 11:33:06;;;;;;;1.95;1.20;;;21.40;70.50;;;;;;7406912;19;20011;-81
2022/10/16 11:35:44;;;;;;;3.00;0.95;;;21.40;70.70;;;;;;7398877;19;20014;-80
2022/10/16 11:38:18;;;;;;;1.02;0.95;;;21.50;70.80;;;;;;7406950;19;20015;-80
2022/10/16 11:40:51;;;;;;;1.90;1.10;;;21.60;71.40;;;;;;7406520;19;20306;-81
2022/10/16 11:43:26;;;;;;;1.05;0.90;;;21.70;71.20;;;;;;7408898;19;20010;-80
2022/10/16 11:46:01;;;;;;;1.95;0.90;;;21.70;70.70;;;;;;7411471;19;20105;-79
2022/10/16 11:48:36;;;;;;;3.13;1.05;;;21.70;70.70;;;;;;7408229;19;20028;-80
2022/10/16 11:51:13;;;;;;;1.73;0.80;;;21.80;70.80;;;;;;7424160;19;20022;-80
2022/10/16 11:53:48;;;;;;;4.72;1.05;;;21.70;70.20;;;;;;7405242;19;20014;-80
2022/10/16 11:56:21;;;;;;;1.10;1.00;;;21.70;70.50;;;;;;7406694;19;20031;-80
2022/10/16 11:58:59;;;;;;;1.45;1.05;;;21.70;70.80;;;;;;7403873;19;20014;-80
2022/10/16 12:01:35;;;;;;;0.95;0.80;;;21.70;71.30;;;;;;7405535;19;20018;-80
2022/10/16 12:04:22;;;;;;;0.98;0.70;;;21.80;71.00;;;;;;7402112;19;20014;-80
2022/10/16 12:06:55;;;;;;;1.63;1.23;;;21.80;71.30;;;;;;7405811;19;20445;-80
2022/10/16 12:09:28;;;;;;;1.88;1.10;;;21.80;71.10;;;;;;7424287;19;20085;-81
2022/10/16 12:11:57;;;;;;;6.32;1.10;;;21.80;71.00;;;;;;7401764;19;20154;-80
2022/10/16 12:14:42;;;;;;;1.23;1.10;;;21.80;71.40;;;;;;7404497;19;20028;-80
2022/10/16 12:17:36;;;;;;;3.55;1.08;;;21.70;71.70;;;;;;7406130;19;20020;-80
2022/10/16 12:20:23;;;;;;;1.13;0.95;;;21.80;71.70;;;;;;7406237;19;20018;-80
2022/10/16 12:22:55;;;;;;;0.82;0.77;;;21.80;71.70;;;;;;7404163;19;20381;-80
2022/10/16 12:25:28;;;;;;;2.58;1.08;;;21.80;71.60;;;;;;7395851;19;20037;-80
2022/10/16 12:28:05;;;;;;;1.67;1.05;;;21.90;71.60;;;;;;7374781;19;20038;-80
2022/10/16 12:30:37;;;;;;;3.85;1.40;;;22.00;71.60;;;;;;7376176;19;20022;-80
2022/10/16 12:33:22;;;;;;;2.58;1.40;;;22.10;71.30;;;;;;7393928;19;20018;-79
2022/10/16 12:35:52;;;;;;;3.40;1.55;;;22.10;71.30;;;;;;7373254;19;20053;-80
2022/10/16 12:38:22;;;;;;;5.18;1.50;;;22.20;71.10;;;;;;7375673;19;20036;-80
2022/10/16 12:41:00;;;;;;;1.95;1.38;;;22.30;71.10;;;;;;7375629;19;20010;-80
2022/10/16 12:43:38;;;;;;;6.47;1.58;;;22.30;71.00;;;;;;7375803;19;20021;-79
2022/10/16 12:46:35;;;;;;;2.45;1.52;;;22.40;70.80;;;;;;7376896;19;20030;-80
2022/10/16 12:49:31;;;;;;;1.98;1.42;;;22.40;70.60;;;;;;7373971;19;20015;-80
2022/10/16 12:52:01;;;;;;;1.83;1.58;;;22.40;70.80;;;;;;7376076;19;20083;-80
2022/10/16 12:54:32;;;;;;;4.95;1.50;;;22.40;71.30;;;;;;7377651;19;20014;-81
2022/10/16 12:57:24;;;;;;;2.35;1.70;;;22.50;72.10;;;;;;7396074;19;20082;-80
2022/10/16 13:00:01;;;;;;;5.30;1.60;;;22.60;72.60;;;;;;7375062;19;20015;-80
2022/10/16 13:02:58;;;;;;;3.50;1.83;;;22.70;72.10;;;;;;7374281;19;20510;-80
2022/10/16 13:05:51;;;;;;;5.45;2.20;;;22.80;71.00;;;;;;7370624;19;20049;-80
2022/10/16 13:08:33;;;;;;;2.50;1.90;;;22.90;71.00;;;;;;7364446;19;20078;-80
2022/10/16 13:11:09;;;;;;;2.55;1.92;;;23.00;70.80;;;;;;7375178;19;20492;-81
2022/10/16 13:14:04;;;;;;;2.95;2.03;;;23.20;70.70;;;;;;7372738;19;20019;-80
2022/10/16 13:16:45;;;;;;;8.82;2.42;;;23.20;70.10;;;;;;7374281;19;20094;-81
2022/10/16 13:19:25;;;;;;;2.30;2.10;;;23.30;68.80;;;;;;7373223;19;20018;-80
2022/10/16 13:22:04;;;;;;;3.77;2.00;;;23.40;68.80;;;;;;7375953;19;20018;-79
2022/10/16 13:25:03;;;;;;;4.93;2.13;;;23.50;68.70;;;;;;7372482;19;20110;-79
2022/10/16 13:27:39;;;;;;;10.15;2.10;;;23.30;68.40;;;;;;7377830;19;20015;-80
2022/10/16 13:30:16;;;;;;;6.38;2.53;;;23.20;68.70;;;;;;7394733;19;20015;-79
2022/10/16 13:32:49;;;;;;;2.55;2.28;;;23.10;69.00;;;;;;7376668;19;20015;-79
2022/10/16 13:35:23;;;;;;;4.05;2.10;;;23.00;69.50;;;;;;7368529;19;20038;-79
2022/10/16 13:38:07;;;;;;;2.75;2.30;;;22.80;70.00;;;;;;7374331;19;20434;-79
2022/10/16 13:40:36;;;;;;;3.13;2.00;;;22.70;70.50;;;;;;7400135;19;20090;-79
2022/10/16 13:43:05;;;;;;;2.55;1.80;;;22.70;70.70;;;;;;7343595;19;20549;-78
2022/10/16 13:45:34;;;;;;;4.35;2.17;;;22.60;71.20;;;;;;7397329;19;20327;-79
2022/10/16 13:48:07;;;;;;;2.35;1.83;;;22.60;71.50;;;;;;7317892;19;20437;-79
2022/10/16 13:50:36;;;;;;;2.72;1.60;;;22.60;71.40;;;;;;7396585;19;20031;-79
2022/10/16 13:53:16;;;;;;;3.20;2.00;;;22.50;71.10;;;;;;7398658;19;20195;-79
2022/10/16 13:55:45;;;;;;;2.10;1.90;;;22.40;71.40;;;;;;7318025;19;20018;-80
2022/10/16 13:58:16;;;;;;;2.78;2.05;;;22.50;71.60;;;;;;7397799;19;20039;-80
2022/10/16 14:00:55;;;;;;;;;;;22.50;71.80;;;;;;7372758;19;20014;-79
2022/10/16 14:03:24;;;;;;;6.40;2.33;;;22.70;72.00;;;;;;7361767;19;19923;-79
2022/10/16 14:05:55;;;;;;;5.65;2.17;;;22.70;71.70;;;;;;7367696;19;20045;-79
2022/10/16 14:08:29;;;;;;;3.22;2.30;;;22.70;72.00;;;;;;7394993;19;20018;-80
2022/10/16 14:11:00;;;;;;;3.28;2.42;;;22.70;72.00;;;;;;7371055;19;20094;-81
2022/10/16 14:13:33;;;;;;;3.60;2.00;;;22.70;72.00;;;;;;7372427;19;20010;-79
2022/10/16 14:16:05;;;;;;;5.20;2.40;;;22.70;72.20;;;;;;7363426;19;20150;-80
2022/10/16 14:18:34;;;;;;;3.38;2.22;;;22.80;72.10;;;;;;7399714;19;20035;-80
2022/10/16 14:21:07;;;;;;;6.18;2.28;;;22.80;72.20;;;;;;7382703;19;20035;-81
2022/10/16 14:23:40;;;;;;;5.40;2.42;;;22.90;72.30;;;;;;7395405;19;20019;-79